createdAt,value
2022-10-04T00:00:25.368Z,95.12
2022-10-04T00:03:02.741Z,95.03
2022-10-04T00:05:33.104Z,95.01
2022-10-04T00:08:24.780Z,94.99
2022-10-04T00:11:06.375Z,94.86
2022-10-04T00:13:39.740Z,94.78
2022-10-04T00:16:09.130Z,94.82
2022-10-04T00:18:42.689Z,94.82
2022-10-04T00:21:11.328Z,94.77
2022-10-04T00:23:46.919Z,94.99
2022-10-04T00:27:09.866Z,94.90
2022-10-04T00:29:43.321Z,94.84
2022-10-04T00:32:32.591Z,94.97
2022-10-04T00:35:01.680Z,94.99
2022-10-04T00:37:59.646Z,94.96
2022-10-04T00:40:34.173Z,95.08
2022-10-04T00:43:06.425Z,95.08
2022-10-04T00:45:44.652Z,95.01
2022-10-04T00:48:39.739Z,94.95
2022-10-04T00:51:20.705Z,95.05
2022-10-04T00:54:04.431Z,95.02
2022-10-04T00:56:44.643Z,95.05
2022-10-04T00:59:30.577Z,94.98
2022-10-04T01:02:06.968Z,94.94
2022-10-04T01:04:44.273Z,94.94
2022-10-04T01:07:18.597Z,94.81
2022-10-04T01:09:54.171Z,94.70
2022-10-04T01:12:41.945Z,94.64
2022-10-04T01:15:19.342Z,94.62
2022-10-04T01:18:16.844Z,94.67
2022-10-04T01:20:56.552Z,94.60
2022-10-04T01:23:42.917Z,94.67
2022-10-04T01:26:41.489Z,94.50
2022-10-04T01:29:15.401Z,94.69
2022-10-04T01:31:47.357Z,94.55
2022-10-04T01:34:19.343Z,94.47
2022-10-04T01:36:49.964Z,94.28
2022-10-04T01:39:23.514Z,94.31
2022-10-04T01:42:01.808Z,94.40
2022-10-04T01:44:37.954Z,94.35
2022-10-04T01:47:14.267Z,94.22
2022-10-04T01:49:46.029Z,93.98
2022-10-04T01:52:22.601Z,93.90
2022-10-04T01:55:04.461Z,94.22
2022-10-04T01:57:38.813Z,93.91
2022-10-04T02:00:12.395Z,93.86
2022-10-04T02:02:50.377Z,93.56
2022-10-04T02:05:30.143Z,93.52
2022-10-04T02:08:05.339Z,93.76
2022-10-04T02:10:43.244Z,93.80
2022-10-04T02:13:19.297Z,93.67
2022-10-04T02:15:50.060Z,93.44
2022-10-04T02:18:22.228Z,93.49
2022-10-04T02:20:53.111Z,93.28
2022-10-04T02:23:24.516Z,93.54
2022-10-04T02:25:54.804Z,93.20
2022-10-04T02:28:23.508Z,93.10
2022-10-04T02:31:30.882Z,93.03
2022-10-04T02:34:01.584Z,93.10
2022-10-04T02:36:31.606Z,92.85
2022-10-04T02:39:06.249Z,92.84
2022-10-04T02:41:44.591Z,92.90
2022-10-04T02:44:19.078Z,93.00
2022-10-04T02:46:55.551Z,93.06
2022-10-04T02:49:33.254Z,93.18
2022-10-04T02:52:07.588Z,92.98
2022-10-04T02:54:45.211Z,92.98
2022-10-04T02:57:22.156Z,92.69
2022-10-04T02:59:52.466Z,92.95
2022-10-04T03:02:30.151Z,93.05
2022-10-04T03:05:07.411Z,92.84
2022-10-04T03:07:38.244Z,92.71
2022-10-04T03:10:13.193Z,92.68
2022-10-04T03:12:44.138Z,92.90
2022-10-04T03:15:14.231Z,92.84
2022-10-04T03:17:45.230Z,92.90
2022-10-04T03:20:21.295Z,92.86
2022-10-04T03:22:55.635Z,93.15
2022-10-04T03:25:31.118Z,92.96
2022-10-04T03:28:05.211Z,92.91
2022-10-04T03:30:36.947Z,92.73
2022-10-04T03:33:07.754Z,92.95
2022-10-04T03:35:40.623Z,92.82
2022-10-04T03:38:13.233Z,92.83
2022-10-04T03:40:51.786Z,92.75
2022-10-04T03:43:26.311Z,92.55
2022-10-04T03:45:58.265Z,92.43
2022-10-04T03:48:36.461Z,92.40
2022-10-04T03:51:08.945Z,92.33
2022-10-04T03:53:43.452Z,92.52
2022-10-04T03:56:17.476Z,92.55
2022-10-04T03:58:50.464Z,92.39
2022-10-04T04:01:37.225Z,92.61
2022-10-04T04:04:20.475Z,92.67
2022-10-04T04:07:00.512Z,92.73
2022-10-04T04:09:43.605Z,92.75
2022-10-04T04:12:20.791Z,92.74
2022-10-04T04:14:53.733Z,92.63
2022-10-04T04:17:41.809Z,92.95
2022-10-04T04:20:26.100Z,92.86
2022-10-04T04:23:04.446Z,92.80
2022-10-04T04:25:38.287Z,93.03
2022-10-04T04:28:22.866Z,92.78
2022-10-04T04:30:58.719Z,92.71
2022-10-04T04:33:32.414Z,92.66
2022-10-04T04:36:08.179Z,92.72
2022-10-04T04:38:56.883Z,92.51
2022-10-04T04:41:27.709Z,92.71
2022-10-04T04:43:56.856Z,92.45
2022-10-04T04:46:29.315Z,92.41
2022-10-04T04:49:05.495Z,92.49
2022-10-04T04:51:35.044Z,92.51
2022-10-04T04:54:07.976Z,92.64
2022-10-04T04:56:37.306Z,92.42
2022-10-04T04:59:09.432Z,92.75
2022-10-04T05:01:45.965Z,92.49
2022-10-04T05:04:24.033Z,92.56
2022-10-04T05:07:03.837Z,92.55
2022-10-04T05:09:34.900Z,92.48
2022-10-04T05:12:11.612Z,92.50
2022-10-04T05:14:46.889Z,92.42
2022-10-04T05:17:24.184Z,92.50
2022-10-04T05:19:57.208Z,92.13
2022-10-04T05:22:28.323Z,92.20
2022-10-04T05:25:02.798Z,92.25
2022-10-04T05:27:38.402Z,92.04
2022-10-04T05:30:14.013Z,92.05
2022-10-04T05:32:59.226Z,92.01
2022-10-04T05:35:30.767Z,92.21
2022-10-04T05:38:09.688Z,92.38
2022-10-04T05:40:51.426Z,92.37
2022-10-04T05:43:33.254Z,92.67
2022-10-04T05:46:33.766Z,92.46
2022-10-04T05:49:18.207Z,92.61
2022-10-04T05:51:56.012Z,92.69
2022-10-04T05:54:28.966Z,92.97
2022-10-04T05:57:32.851Z,92.96
2022-10-04T06:00:16.985Z,92.90
2022-10-04T06:03:18.744Z,92.72
2022-10-04T06:05:56.215Z,93.09
2022-10-04T06:08:48.221Z,92.92
2022-10-04T06:11:34.214Z,92.92
2022-10-04T06:14:58.621Z,92.96
2022-10-04T06:17:45.242Z,92.95
2022-10-04T06:20:57.872Z,93.13
2022-10-04T06:23:29.606Z,93.15
2022-10-04T06:26:05.679Z,92.90
2022-10-04T06:28:40.882Z,93.11
2022-10-04T06:31:44.055Z,93.03
2022-10-04T06:34:59.098Z,93.21
2022-10-04T06:38:06.684Z,93.08
2022-10-04T06:41:31.006Z,93.09
2022-10-04T06:44:32.514Z,92.92
2022-10-04T06:47:24.856Z,93.09
2022-10-04T06:50:01.366Z,93.02
2022-10-04T06:53:16.788Z,93.13
2022-10-04T06:56:23.768Z,93.37
2022-10-04T06:59:30.594Z,93.29
2022-10-04T07:02:05.756Z,93.26
2022-10-04T07:05:07.019Z,93.41
2022-10-04T07:07:38.504Z,93.41
2022-10-04T07:10:31.167Z,93.17
2022-10-04T07:13:25.466Z,93.38
2022-10-04T07:16:08.107Z,93.28
2022-10-04T07:18:46.803Z,93.52
2022-10-04T07:21:18.452Z,93.39
2022-10-04T07:23:54.122Z,93.14
2022-10-04T07:26:32.097Z,93.12
2022-10-04T07:29:24.004Z,92.79
2022-10-04T07:32:07.878Z,92.61
2022-10-04T07:34:44.289Z,92.70
2022-10-04T07:37:15.948Z,93.00
2022-10-04T07:39:54.249Z,92.95
2022-10-04T07:42:30.901Z,92.36
2022-10-04T07:45:17.691Z,92.24
2022-10-04T07:47:46.653Z,92.37
2022-10-04T07:50:25.463Z,92.21
2022-10-04T07:53:09.485Z,91.60
2022-10-04T07:55:56.999Z,91.79
2022-10-04T07:58:46.432Z,91.81
2022-10-04T08:01:33.460Z,91.57
2022-10-04T08:04:15.856Z,91.83
2022-10-04T08:06:59.169Z,91.92
2022-10-04T08:09:50.089Z,91.54
2022-10-04T08:12:31.246Z,90.80
2022-10-04T08:15:31.124Z,90.19
2022-10-04T08:18:19.651Z,91.30
2022-10-04T08:20:58.045Z,90.43
2022-10-04T08:24:16.886Z,90.37
2022-10-04T08:27:07.668Z,90.41
2022-10-04T08:30:02.347Z,90.11
2022-10-04T08:33:06.745Z,90.10
2022-10-04T08:36:08.709Z,90.44
2022-10-04T08:38:55.542Z,90.03
2022-10-04T08:42:42.972Z,89.73
2022-10-04T08:46:06.516Z,88.73
2022-10-04T08:49:28.147Z,88.89
2022-10-04T08:52:51.177Z,88.78
2022-10-04T08:55:48.654Z,89.67
2022-10-04T08:58:49.222Z,90.42
2022-10-04T09:01:53.268Z,89.85
2022-10-04T09:04:55.947Z,88.92
2022-10-04T09:08:16.088Z,88.87
2022-10-04T09:11:32.791Z,88.66
2022-10-04T09:14:36.834Z,88.80
2022-10-04T09:17:23.743Z,87.71
2022-10-04T09:20:20.033Z,87.08
2022-10-04T09:23:10.315Z,87.03
2022-10-04T09:26:16.640Z,86.47
2022-10-04T09:29:44.893Z,86.41
2022-10-04T09:33:27.018Z,86.38
2022-10-04T09:36:42.890Z,86.37
2022-10-04T09:40:13.992Z,86.60
2022-10-04T09:43:59.093Z,86.11
2022-10-04T09:47:02.008Z,84.70
2022-10-04T09:50:07.289Z,85.01
2022-10-04T09:52:49.668Z,84.94
2022-10-04T09:55:44.206Z,85.14
2022-10-04T09:58:58.703Z,85.24
2022-10-04T10:01:37.252Z,85.79
2022-10-04T10:04:52.184Z,86.79
2022-10-04T10:07:55.163Z,85.99
2022-10-04T10:11:01.531Z,85.73
2022-10-04T10:14:12.578Z,86.71
2022-10-04T10:17:05.277Z,86.70
2022-10-04T10:20:26.798Z,86.49
2022-10-04T10:23:21.520Z,86.30
2022-10-04T10:26:42.581Z,85.32
2022-10-04T10:30:17.686Z,85.25
2022-10-04T10:33:38.266Z,85.60
2022-10-04T10:36:45.435Z,84.77
2022-10-04T10:40:06.101Z,83.79
2022-10-04T10:43:21.005Z,85.52
2022-10-04T10:46:09.668Z,84.65
2022-10-04T10:49:12.507Z,85.13
2022-10-04T10:52:25.910Z,83.78
2022-10-04T10:55:55.017Z,84.06
2022-10-04T10:59:22.968Z,84.84
2022-10-04T11:02:50.485Z,84.56
2022-10-04T11:06:35.644Z,84.17
2022-10-04T11:10:02.290Z,83.84
2022-10-04T11:13:05.984Z,82.13
2022-10-04T11:16:14.247Z,83.52
2022-10-04T11:19:38.179Z,84.01
2022-10-04T11:23:15.160Z,81.68
2022-10-04T11:26:39.885Z,81.01
2022-10-04T11:29:35.050Z,80.70
2022-10-04T11:33:16.565Z,83.27
2022-10-04T11:36:31.194Z,81.62
2022-10-04T11:39:31.784Z,80.50
2022-10-04T11:42:47.002Z,81.45
2022-10-04T11:45:39.337Z,81.19
2022-10-04T11:48:41.553Z,83.07
2022-10-04T11:52:19.647Z,82.80
2022-10-04T11:55:58.571Z,83.49
2022-10-04T11:58:46.781Z,82.94
2022-10-04T12:02:19.021Z,82.29
2022-10-04T12:05:50.086Z,83.61
2022-10-04T12:08:34.759Z,83.04
2022-10-04T12:12:05.411Z,82.77
2022-10-04T12:14:59.748Z,83.56
2022-10-04T12:18:14.820Z,82.23
2022-10-04T12:21:41.952Z,82.96
2022-10-04T12:25:13.648Z,83.88
2022-10-04T12:28:28.297Z,82.59
2022-10-04T12:31:26.796Z,83.58
2022-10-04T12:34:15.835Z,83.41
2022-10-04T12:37:22.526Z,83.77
2022-10-04T12:40:30.342Z,84.34
2022-10-04T12:43:15.985Z,83.35
2022-10-04T12:46:10.728Z,83.11
2022-10-04T12:49:21.781Z,83.25
2022-10-04T12:52:04.998Z,83.38
2022-10-04T12:54:47.620Z,83.26
2022-10-04T12:57:45.384Z,83.76
2022-10-04T13:00:23.896Z,83.60
2022-10-04T13:03:33.998Z,83.81
2022-10-04T13:06:21.744Z,83.93
2022-10-04T13:09:09.423Z,82.87
2022-10-04T13:12:08.897Z,83.09
2022-10-04T13:14:58.512Z,83.11
2022-10-04T13:17:44.927Z,83.27
2022-10-04T13:20:40.646Z,83.71
2022-10-04T13:23:24.612Z,83.36
2022-10-04T13:26:16.860Z,83.11
2022-10-04T13:29:04.445Z,82.97
2022-10-04T13:31:42.450Z,83.77
2022-10-04T13:34:26.889Z,84.20
2022-10-04T13:37:27.232Z,84.52
2022-10-04T13:40:35.602Z,83.73
2022-10-04T13:43:44.545Z,83.85
2022-10-04T13:46:32.329Z,84.26
2022-10-04T13:49:37.950Z,84.08
2022-10-04T13:52:42.611Z,84.30
2022-10-04T13:55:46.025Z,84.18
2022-10-04T13:58:36.115Z,84.77
2022-10-04T14:01:44.721Z,85.21
2022-10-04T14:05:15.980Z,85.67
2022-10-04T14:08:22.492Z,85.14
2022-10-04T14:11:46.460Z,85.11
2022-10-04T14:15:12.177Z,85.77
2022-10-04T14:18:17.194Z,85.69
2022-10-04T14:21:35.925Z,85.55
2022-10-04T14:24:53.789Z,85.34
2022-10-04T14:28:04.558Z,85.47
2022-10-04T14:30:53.235Z,85.77
2022-10-04T14:34:03.375Z,86.62
2022-10-04T14:37:32.633Z,86.72
2022-10-04T14:40:28.723Z,87.06
2022-10-04T14:43:39.087Z,86.60
2022-10-04T14:46:23.752Z,87.25
2022-10-04T14:49:19.675Z,86.16
2022-10-04T14:52:14.403Z,86.14
2022-10-04T14:54:54.025Z,86.05
2022-10-04T14:57:51.259Z,87.13
2022-10-04T15:00:22.222Z,87.34
2022-10-04T15:03:32.093Z,86.91
2022-10-04T15:06:13.393Z,87.20
2022-10-04T15:09:07.523Z,87.27
2022-10-04T15:12:21.626Z,86.95
2022-10-04T15:15:05.387Z,87.64
2022-10-04T15:17:42.466Z,88.08
2022-10-04T15:20:28.423Z,87.66
2022-10-04T15:23:16.198Z,87.09
2022-10-04T15:25:48.622Z,87.74
2022-10-04T15:28:51.525Z,88.01
2022-10-04T15:31:29.978Z,88.08
2022-10-04T15:34:08.032Z,87.60
2022-10-04T15:37:05.084Z,87.61
2022-10-04T15:40:17.632Z,87.46
2022-10-04T15:43:30.253Z,87.39
2022-10-04T15:46:37.618Z,87.93
2022-10-04T15:49:37.953Z,88.00
2022-10-04T15:52:45.544Z,88.30
2022-10-04T15:55:38.731Z,88.00
2022-10-04T15:58:37.218Z,88.11
2022-10-04T16:01:35.060Z,88.20
2022-10-04T16:04:48.817Z,88.71
2022-10-04T16:07:43.121Z,88.47
2022-10-04T16:10:31.220Z,88.76
2022-10-04T16:13:34.175Z,88.88
2022-10-04T16:17:00.273Z,88.61
2022-10-04T16:19:59.315Z,88.69
2022-10-04T16:22:31.642Z,89.13
2022-10-04T16:25:21.417Z,89.17
2022-10-04T16:28:08.292Z,89.39
2022-10-04T16:30:45.120Z,89.21
2022-10-04T16:33:30.406Z,89.27
2022-10-04T16:36:12.950Z,89.54
2022-10-04T16:39:10.364Z,89.66
2022-10-04T16:41:45.569Z,89.63
2022-10-04T16:44:36.056Z,89.94
2022-10-04T16:47:22.885Z,89.90
2022-10-04T16:49:57.233Z,89.50
2022-10-04T16:52:50.941Z,90.07
2022-10-04T16:55:57.007Z,90.10
2022-10-04T16:58:53.841Z,90.41
2022-10-04T17:02:22.701Z,90.92
2022-10-04T17:05:25.695Z,90.80
2022-10-04T17:08:24.041Z,91.00
2022-10-04T17:11:28.094Z,91.05
2022-10-04T17:14:02.759Z,90.84
2022-10-04T17:16:39.765Z,91.01
2022-10-04T17:19:35.964Z,91.24
2022-10-04T17:22:21.954Z,91.13
2022-10-04T17:25:05.647Z,91.46
2022-10-04T17:27:49.588Z,92.02
2022-10-04T17:30:25.378Z,91.64
2022-10-04T17:33:17.481Z,91.66
2022-10-04T17:36:41.174Z,91.53
2022-10-04T17:39:39.177Z,91.49
2022-10-04T17:42:27.956Z,92.16
2022-10-04T17:45:22.673Z,92.32
2022-10-04T17:48:20.717Z,92.45
2022-10-04T17:51:19.040Z,92.53
2022-10-04T17:54:15.305Z,92.43
2022-10-04T17:56:51.998Z,92.42
2022-10-04T17:59:30.716Z,92.41
2022-10-04T18:02:12.901Z,92.41
2022-10-04T18:04:54.808Z,92.37
2022-10-04T18:07:29.725Z,93.08
2022-10-04T18:10:04.488Z,92.78
2022-10-04T18:12:40.393Z,92.84
2022-10-04T18:15:25.984Z,92.62
2022-10-04T18:18:21.836Z,92.45
2022-10-04T18:21:18.952Z,92.50
2022-10-04T18:23:57.302Z,92.32
2022-10-04T18:26:56.513Z,92.42
2022-10-04T18:30:04.341Z,92.88
2022-10-04T18:32:38.177Z,92.50
2022-10-04T18:35:29.853Z,91.89
2022-10-04T18:38:27.168Z,91.87
2022-10-04T18:41:01.842Z,91.63
2022-10-04T18:43:41.796Z,91.45
2022-10-04T18:46:21.241Z,91.47
2022-10-04T18:48:56.658Z,91.31
2022-10-04T18:51:30.266Z,91.31
2022-10-04T18:54:22.844Z,91.23
2022-10-04T18:57:11.390Z,93.24
2022-10-04T19:00:16.162Z,92.77
2022-10-04T19:02:59.100Z,92.74
2022-10-04T19:05:41.199Z,92.63
2022-10-04T19:08:35.008Z,92.80
2022-10-04T19:11:10.944Z,92.85
2022-10-04T19:13:51.647Z,93.46
2022-10-04T19:16:41.703Z,93.53
2022-10-04T19:19:40.878Z,93.39
2022-10-04T19:22:33.339Z,93.44
2022-10-04T19:25:26.708Z,93.58
2022-10-04T19:28:04.551Z,93.30
2022-10-04T19:31:02.975Z,93.13
2022-10-04T19:33:46.049Z,92.97
2022-10-04T19:36:34.093Z,92.62
2022-10-04T19:39:23.564Z,92.01
2022-10-04T19:42:01.249Z,92.10
2022-10-04T19:45:16.471Z,92.21
2022-10-04T19:47:54.771Z,92.13
2022-10-04T19:50:29.494Z,92.16
2022-10-04T19:53:07.960Z,91.99
2022-10-04T19:55:54.044Z,91.85
2022-10-04T19:58:41.917Z,91.21
2022-10-04T20:01:14.162Z,90.96
2022-10-04T20:03:43.678Z,91.19
2022-10-04T20:06:26.376Z,91.46
2022-10-04T20:09:02.621Z,91.47
2022-10-04T20:11:49.768Z,91.56
2022-10-04T20:14:48.360Z,92.15
2022-10-04T20:17:40.276Z,92.33
2022-10-04T20:20:09.831Z,92.49
2022-10-04T20:22:58.499Z,92.33
2022-10-04T20:26:02.311Z,92.13
2022-10-04T20:28:44.774Z,92.19
2022-10-04T20:31:58.082Z,92.05
2022-10-04T20:34:35.951Z,91.80
2022-10-04T20:37:06.631Z,91.66
2022-10-04T20:40:03.423Z,91.65
2022-10-04T20:42:35.823Z,91.52
2022-10-04T20:45:23.387Z,91.59
2022-10-04T20:47:57.554Z,91.46
2022-10-04T20:50:38.904Z,91.41
2022-10-04T20:53:17.618Z,91.13
2022-10-04T20:55:48.295Z,91.03
2022-10-04T20:58:32.298Z,90.96
2022-10-04T21:01:14.066Z,91.11
2022-10-04T21:03:42.826Z,91.24
2022-10-04T21:06:13.141Z,90.85
2022-10-04T21:08:42.295Z,90.82
2022-10-04T21:11:22.955Z,91.17
2022-10-04T21:14:00.436Z,91.23
2022-10-04T21:16:57.570Z,91.19
2022-10-04T21:19:54.160Z,91.23
2022-10-04T21:22:40.299Z,91.19
2022-10-04T21:25:33.108Z,91.31
2022-10-04T21:28:37.659Z,91.22
2022-10-04T21:31:06.773Z,91.18
2022-10-04T21:33:37.482Z,91.16
2022-10-04T21:36:07.718Z,91.22
2022-10-04T21:38:36.422Z,91.24
2022-10-04T21:41:05.601Z,91.42
2022-10-04T21:43:34.515Z,91.65
2022-10-04T21:46:04.849Z,91.19
2022-10-04T21:48:33.632Z,91.24
2022-10-04T21:51:02.280Z,91.19
2022-10-04T21:53:30.964Z,90.98
2022-10-04T21:55:59.582Z,90.98
2022-10-04T21:58:28.230Z,91.00
2022-10-04T22:00:57.017Z,90.91
2022-10-04T22:03:27.430Z,91.02
2022-10-04T22:05:56.046Z,91.20
2022-10-04T22:08:24.714Z,91.25
2022-10-04T22:10:57.474Z,91.35
2022-10-04T22:13:27.000Z,91.56
2022-10-04T22:15:55.824Z,91.40
2022-10-04T22:18:26.207Z,91.31
2022-10-04T22:20:54.946Z,91.31
2022-10-04T22:23:26.421Z,91.12
2022-10-04T22:25:56.548Z,91.20
2022-10-04T22:28:28.589Z,91.10
2022-10-04T22:30:58.258Z,91.10
2022-10-04T22:33:36.433Z,90.93
2022-10-04T22:36:15.947Z,90.93
2022-10-04T22:38:51.200Z,90.99
2022-10-04T22:41:21.294Z,90.93
2022-10-04T22:43:51.681Z,90.94
2022-10-04T22:46:21.829Z,90.87
2022-10-04T22:48:52.168Z,90.91
2022-10-04T22:51:21.436Z,91.06
2022-10-04T22:53:50.198Z,91.19
2022-10-04T22:56:18.839Z,91.30
2022-10-04T22:58:47.749Z,91.41
2022-10-04T23:01:19.125Z,91.39
2022-10-04T23:03:51.179Z,91.43
2022-10-04T23:06:19.968Z,91.35
2022-10-04T23:08:48.602Z,91.61
2022-10-04T23:11:17.220Z,91.38
2022-10-04T23:13:46.102Z,91.66
2022-10-04T23:16:23.445Z,91.63
2022-10-04T23:19:03.253Z,91.52
2022-10-04T23:21:35.722Z,91.39
2022-10-04T23:24:15.982Z,91.31
2022-10-04T23:26:48.477Z,91.24
2022-10-04T23:29:22.834Z,91.36
2022-10-04T23:31:52.743Z,91.24
2022-10-04T23:34:30.271Z,91.22
2022-10-04T23:36:59.234Z,91.24
2022-10-04T23:39:31.583Z,91.30
2022-10-04T23:42:02.161Z,91.35
2022-10-04T23:44:36.480Z,91.44
2022-10-04T23:47:12.420Z,91.32
2022-10-04T23:49:43.987Z,91.31
2022-10-04T23:52:21.577Z,91.39
2022-10-04T23:54:52.174Z,91.42
2022-10-04T23:57:25.821Z,91.57
2022-10-04T23:59:54.646Z,91.42
